createdAt,value
2018-04-16T00:00:48.493Z,20.97
2018-04-16T00:03:15.278Z,16.33
2018-04-16T00:05:42.104Z,22.57
2018-04-16T00:08:08.913Z,23.07
2018-04-16T00:10:35.717Z,25.40
2018-04-16T00:13:02.614Z,22.77
2018-04-16T00:15:29.397Z,18.37
2018-04-16T00:17:56.167Z,23.37
2018-04-16T00:20:22.958Z,27.20
2018-04-16T00:22:49.718Z,24.67
2018-04-16T00:25:16.557Z,18.27
2018-04-16T00:27:43.312Z,21.00
2018-04-16T00:30:10.067Z,23.37
2018-04-16T00:32:42.621Z,23.53
2018-04-16T00:35:15.233Z,22.47
2018-04-16T00:37:47.728Z,20.77
2018-04-16T00:40:20.210Z,23.20
2018-04-16T00:42:52.761Z,20.53
2018-04-16T00:45:25.177Z,23.63
2018-04-16T00:47:57.647Z,23.77
2018-04-16T00:50:30.329Z,27.07
2018-04-16T00:53:11.973Z,24.27
2018-04-16T00:55:44.301Z,19.60
2018-04-16T00:58:16.724Z,24.03
2018-04-16T01:00:49.124Z,24.70
2018-04-16T01:03:21.566Z,29.27
2018-04-16T01:05:53.958Z,24.57
2018-04-16T01:08:26.536Z,20.90
2018-04-16T01:10:58.955Z,27.77
2018-04-16T01:13:31.613Z,22.27
2018-04-16T01:16:04.049Z,22.40
2018-04-16T01:18:36.608Z,26.47
2018-04-16T01:21:08.985Z,22.63
2018-04-16T01:23:41.669Z,28.53
2018-04-16T01:26:14.165Z,22.70
2018-04-16T01:28:46.638Z,22.07
2018-04-16T01:31:18.919Z,20.87
2018-04-16T01:33:51.313Z,25.00
2018-04-16T01:36:23.684Z,23.83
2018-04-16T01:38:56.211Z,21.20
2018-04-16T01:41:28.768Z,24.63
2018-04-16T01:44:01.073Z,23.30
2018-04-16T01:46:33.593Z,22.07
2018-04-16T01:49:06.132Z,27.80
2018-04-16T01:51:38.529Z,30.57
2018-04-16T01:54:11.032Z,28.10
2018-04-16T01:56:43.633Z,23.00
2018-04-16T01:59:16.068Z,18.90
2018-04-16T02:01:48.550Z,20.97
2018-04-16T02:04:21.077Z,26.47
2018-04-16T02:06:53.593Z,23.27
2018-04-16T02:09:26.046Z,25.30
2018-04-16T02:11:58.455Z,20.60
2018-04-16T02:14:30.895Z,23.43
2018-04-16T02:17:03.411Z,27.80
2018-04-16T02:19:35.936Z,25.17
2018-04-16T02:22:08.476Z,24.03
2018-04-16T02:24:40.904Z,27.50
2018-04-16T02:27:13.467Z,27.43
2018-04-16T02:29:45.858Z,27.73
2018-04-16T02:32:18.168Z,21.20
2018-04-16T02:34:50.717Z,31.47
2018-04-16T02:37:23.023Z,32.03
2018-04-16T02:39:55.527Z,30.33
2018-04-16T02:42:28.188Z,24.80
2018-04-16T02:45:00.781Z,30.60
2018-04-16T02:47:44.341Z,28.57
2018-04-16T02:50:16.796Z,22.30
2018-04-16T02:52:49.324Z,22.63
2018-04-16T02:55:21.753Z,23.57
2018-04-16T02:57:54.160Z,25.53
2018-04-16T03:00:26.628Z,26.97
2018-04-16T03:02:59.133Z,27.93
2018-04-16T03:05:31.700Z,28.00
2018-04-16T03:08:04.123Z,25.17
2018-04-16T03:10:36.784Z,26.27
2018-04-16T03:13:09.081Z,27.60
2018-04-16T03:15:41.590Z,28.60
2018-04-16T03:18:14.061Z,23.57
2018-04-16T03:20:46.491Z,31.80
2018-04-16T03:23:18.831Z,31.83
2018-04-16T03:25:51.332Z,27.47
2018-04-16T03:28:23.835Z,26.87
2018-04-16T03:30:56.536Z,27.53
2018-04-16T03:33:29.045Z,25.47
2018-04-16T03:36:01.632Z,31.10
2018-04-16T03:38:49.083Z,32.00
2018-04-16T03:41:21.480Z,28.03
2018-04-16T03:43:53.980Z,30.83
2018-04-16T03:46:26.401Z,32.23
2018-04-16T03:48:58.892Z,29.37
2018-04-16T03:51:26.448Z,33.00
2018-04-16T03:53:54.027Z,34.63
2018-04-16T03:56:20.873Z,28.13
2018-04-16T03:58:47.625Z,29.33
2018-04-16T04:01:14.438Z,33.87
2018-04-16T04:03:41.257Z,29.40
2018-04-16T04:06:08.260Z,28.67
2018-04-16T04:08:35.015Z,29.13
2018-04-16T04:11:01.783Z,30.07
2018-04-16T04:13:28.661Z,30.47
2018-04-16T04:15:55.858Z,27.93
2018-04-16T04:18:22.609Z,28.33
2018-04-16T04:20:49.360Z,27.57
2018-04-16T04:23:22.041Z,30.13
2018-04-16T04:25:54.682Z,28.30
2018-04-16T04:28:27.354Z,33.43
2018-04-16T04:30:54.124Z,29.63
2018-04-16T04:33:20.876Z,36.70
2018-04-16T04:35:47.628Z,29.27
2018-04-16T04:38:14.485Z,33.47
2018-04-16T04:40:41.293Z,34.60
2018-04-16T04:43:08.113Z,35.20
2018-04-16T04:45:34.968Z,25.00
2018-04-16T04:48:01.863Z,31.97
2018-04-16T04:50:28.620Z,32.00
2018-04-16T04:52:55.409Z,25.83
2018-04-16T04:55:22.246Z,41.83
2018-04-16T04:57:49.000Z,27.77
2018-04-16T05:00:15.745Z,32.43
2018-04-16T05:02:42.567Z,32.80
2018-04-16T05:05:09.330Z,36.97
2018-04-16T05:07:36.093Z,29.50
2018-04-16T05:10:02.871Z,29.23
2018-04-16T05:12:29.635Z,28.50
2018-04-16T05:14:56.431Z,36.53
2018-04-16T05:17:23.212Z,28.37
2018-04-16T05:19:49.961Z,34.40
2018-04-16T05:22:16.745Z,30.13
2018-04-16T05:24:43.528Z,31.63
2018-04-16T05:27:10.273Z,30.40
2018-04-16T05:29:37.041Z,31.60
2018-04-16T05:32:03.790Z,32.87
2018-04-16T05:34:30.619Z,31.13
2018-04-16T05:36:57.544Z,30.00
2018-04-16T05:39:24.345Z,31.30
2018-04-16T05:41:51.158Z,29.13
2018-04-16T05:44:17.916Z,27.87
2018-04-16T05:46:44.844Z,31.90
2018-04-16T05:49:11.582Z,32.57
2018-04-16T05:51:38.343Z,29.93
2018-04-16T05:54:05.268Z,32.70
2018-04-16T05:56:32.042Z,24.50
2018-04-16T05:58:58.845Z,29.17
2018-04-16T06:01:25.620Z,32.27
2018-04-16T06:03:52.392Z,33.17
2018-04-16T06:06:19.201Z,34.00
2018-04-16T06:08:45.977Z,23.03
2018-04-16T06:11:12.837Z,25.07
2018-04-16T06:13:39.712Z,30.13
2018-04-16T06:16:06.499Z,21.90
2018-04-16T06:18:33.272Z,22.83
2018-04-16T06:21:00.037Z,22.87
2018-04-16T06:23:26.808Z,20.63
2018-04-16T06:25:53.581Z,26.80
2018-04-16T06:28:20.349Z,27.50
2018-04-16T06:30:47.104Z,24.67
2018-04-16T06:33:13.875Z,22.50
2018-04-16T06:35:40.663Z,26.90
2018-04-16T06:38:07.431Z,20.20
2018-04-16T06:40:34.308Z,23.00
2018-04-16T06:43:01.053Z,28.27
2018-04-16T06:45:27.793Z,24.13
2018-04-16T06:47:54.550Z,25.33
2018-04-16T06:50:21.300Z,24.93
2018-04-16T06:52:48.056Z,22.80
2018-04-16T06:55:14.859Z,24.13
2018-04-16T06:57:41.637Z,22.47
2018-04-16T07:00:08.398Z,19.07
2018-04-16T07:02:35.216Z,18.63
2018-04-16T07:05:02.001Z,22.83
2018-04-16T07:07:28.762Z,21.90
2018-04-16T07:09:55.538Z,23.30
2018-04-16T07:12:22.292Z,21.00
2018-04-16T07:14:49.084Z,19.47
2018-04-16T07:17:15.885Z,23.17
2018-04-16T07:19:42.797Z,20.50
2018-04-16T07:22:09.542Z,27.60
2018-04-16T07:24:36.348Z,21.03
2018-04-16T07:27:03.199Z,21.80
2018-04-16T07:29:29.976Z,21.00
2018-04-16T07:31:56.720Z,27.83
2018-04-16T07:34:23.471Z,26.40
2018-04-16T07:36:50.245Z,27.63
2018-04-16T07:39:17.031Z,27.93
2018-04-16T07:41:43.757Z,22.30
2018-04-16T07:44:10.509Z,29.53
2018-04-16T07:46:37.284Z,25.53
2018-04-16T07:49:04.087Z,21.13
2018-04-16T07:51:30.852Z,30.73
2018-04-16T07:53:57.615Z,28.90
2018-04-16T07:56:24.392Z,25.87
2018-04-16T07:58:52.048Z,27.50
2018-04-16T08:01:18.840Z,27.70
2018-04-16T08:03:45.600Z,28.97
2018-04-16T08:06:12.348Z,30.00
2018-04-16T08:08:39.161Z,35.13
2018-04-16T08:11:05.922Z,36.93
2018-04-16T08:13:32.719Z,32.60
2018-04-16T08:15:59.475Z,23.87
2018-04-16T08:18:26.489Z,24.17
2018-04-16T08:20:53.298Z,25.27
2018-04-16T08:23:20.101Z,20.97
2018-04-16T08:25:46.896Z,28.73
2018-04-16T08:28:13.720Z,26.77
2018-04-16T08:30:40.464Z,35.40
2018-04-16T08:33:07.205Z,22.47
2018-04-16T08:35:33.964Z,27.90
2018-04-16T08:38:00.709Z,26.73
2018-04-16T08:40:27.520Z,24.70
2018-04-16T08:42:54.281Z,31.83
2018-04-16T08:45:21.089Z,25.27
2018-04-16T08:47:47.840Z,24.27
2018-04-16T08:50:14.689Z,33.63
2018-04-16T08:52:41.475Z,29.93
2018-04-16T08:55:08.290Z,24.67
2018-04-16T08:57:35.069Z,28.63
2018-04-16T09:00:01.830Z,27.03
2018-04-16T09:02:28.602Z,34.83
2018-04-16T09:04:55.468Z,28.60
2018-04-16T09:07:22.291Z,25.33
2018-04-16T09:09:49.080Z,26.77
2018-04-16T09:12:15.853Z,28.13
2018-04-16T09:14:42.681Z,20.30
2018-04-16T09:17:09.435Z,23.53
2018-04-16T09:19:36.216Z,23.60
2018-04-16T09:22:03.115Z,23.83
2018-04-16T09:24:29.854Z,26.70
2018-04-16T09:26:56.646Z,30.83
2018-04-16T09:29:23.436Z,27.57
2018-04-16T09:31:50.231Z,29.73
2018-04-16T09:34:16.992Z,24.43
2018-04-16T09:36:43.741Z,23.10
2018-04-16T09:39:10.621Z,27.03
2018-04-16T09:41:37.432Z,29.93
2018-04-16T09:44:04.225Z,21.80
2018-04-16T09:46:31.169Z,19.13
2018-04-16T09:48:57.941Z,24.47
2018-04-16T09:51:24.877Z,20.90
2018-04-16T09:53:51.637Z,22.53
2018-04-16T09:56:18.397Z,20.40
2018-04-16T09:58:45.207Z,21.73
2018-04-16T10:01:17.798Z,18.07
2018-04-16T10:03:44.625Z,25.30
2018-04-16T10:06:11.495Z,20.67
2018-04-16T10:08:38.415Z,25.67
2018-04-16T10:11:05.241Z,21.40
2018-04-16T10:13:32.006Z,23.73
2018-04-16T10:15:58.752Z,23.23
2018-04-16T10:18:25.544Z,26.10
2018-04-16T10:20:52.315Z,20.70
2018-04-16T10:23:19.060Z,25.73
2018-04-16T10:25:45.804Z,21.83
2018-04-16T10:28:12.552Z,19.47
2018-04-16T10:30:39.362Z,23.77
2018-04-16T10:33:06.122Z,30.73
2018-04-16T10:35:32.901Z,23.17
2018-04-16T10:37:59.672Z,24.03
2018-04-16T10:40:26.445Z,26.80
2018-04-16T10:42:53.232Z,25.97
2018-04-16T10:45:19.995Z,35.50
2018-04-16T10:47:46.762Z,24.13
2018-04-16T10:50:13.512Z,29.63
2018-04-16T10:52:40.281Z,25.13
2018-04-16T10:55:07.043Z,24.43
2018-04-16T10:57:33.844Z,17.47
2018-04-16T11:00:00.625Z,23.90
2018-04-16T11:02:27.484Z,28.20
2018-04-16T11:04:54.254Z,21.30
2018-04-16T11:07:21.037Z,27.20
2018-04-16T11:09:47.797Z,18.33
2018-04-16T11:15:24.961Z,27.73
2018-04-16T11:17:51.715Z,20.63
2018-04-16T11:20:18.507Z,21.23
2018-04-16T11:22:45.293Z,21.87
2018-04-16T11:25:12.095Z,22.33
2018-04-16T11:27:38.863Z,29.77
2018-04-16T11:30:05.645Z,23.57
2018-04-16T11:32:32.398Z,23.13
2018-04-16T11:34:59.293Z,23.97
2018-04-16T11:37:26.075Z,27.43
2018-04-16T11:39:52.821Z,24.17
2018-04-16T11:42:19.585Z,21.93
2018-04-16T11:44:46.341Z,24.33
2018-04-16T11:47:13.097Z,24.37
2018-04-16T11:49:39.857Z,24.33
2018-04-16T11:52:06.622Z,26.40
2018-04-16T11:54:33.372Z,22.95
2018-04-16T11:57:00.184Z,24.40
2018-04-16T11:59:26.985Z,29.83
2018-04-16T12:01:53.760Z,28.27
2018-04-16T12:04:20.551Z,26.13
2018-04-16T12:06:48.020Z,28.00
2018-04-16T12:09:14.805Z,28.95
2018-04-16T12:11:41.559Z,22.85
2018-04-16T12:14:08.361Z,28.85
2018-04-16T12:16:35.152Z,31.25
2018-04-16T12:19:02.514Z,22.10
2018-04-16T12:21:29.295Z,23.92
2018-04-16T12:23:56.065Z,30.98
2018-04-16T12:26:22.813Z,27.15
2018-04-16T12:28:49.573Z,27.90
2018-04-16T12:31:16.374Z,27.55
2018-04-16T12:33:43.137Z,25.42
2018-04-16T12:36:09.883Z,25.05
2018-04-16T12:38:36.701Z,28.83
2018-04-16T12:41:03.611Z,27.83
2018-04-16T12:43:30.410Z,27.00
2018-04-16T12:45:57.157Z,25.20
2018-04-16T12:48:23.928Z,27.27
2018-04-16T12:50:50.680Z,25.70
2018-04-16T12:53:17.561Z,27.65
2018-04-16T12:55:44.309Z,27.45
2018-04-16T12:58:11.095Z,26.10
2018-04-16T13:00:37.909Z,26.50
2018-04-16T13:03:04.720Z,33.53
2018-04-16T13:05:31.520Z,24.33
2018-04-16T13:07:58.327Z,26.12
2018-04-16T13:10:25.128Z,33.23
2018-04-16T13:12:51.896Z,27.02
2018-04-16T13:15:18.716Z,28.73
2018-04-16T13:17:45.750Z,24.65
2018-04-16T13:20:12.522Z,23.80
2018-04-16T13:22:39.328Z,24.75
2018-04-16T13:25:06.117Z,25.75
2018-04-16T13:27:32.888Z,33.97
2018-04-16T13:29:59.655Z,27.80
2018-04-16T13:32:26.432Z,25.73
2018-04-16T13:34:53.205Z,34.53
2018-04-16T13:37:19.992Z,29.17
2018-04-16T13:39:46.754Z,28.63
2018-04-16T13:42:13.589Z,28.35
2018-04-16T13:44:40.348Z,28.70
2018-04-16T13:47:07.182Z,28.87
2018-04-16T13:49:33.962Z,26.62
2018-04-16T13:52:00.732Z,25.87
2018-04-16T13:54:27.501Z,32.47
2018-04-16T13:56:54.288Z,26.62
2018-04-16T13:59:21.123Z,27.30
2018-04-16T14:01:47.897Z,24.50
2018-04-16T14:04:14.649Z,31.47
2018-04-16T14:06:41.394Z,32.60
2018-04-16T14:09:08.142Z,26.27
2018-04-16T14:11:34.897Z,37.97
2018-04-16T14:14:01.690Z,36.27
2018-04-16T14:16:28.496Z,41.07
2018-04-16T14:18:55.279Z,27.83
2018-04-16T14:21:22.079Z,41.23
2018-04-16T14:23:48.833Z,30.63
2018-04-16T14:26:15.597Z,28.00
2018-04-16T14:28:42.357Z,31.73
2018-04-16T14:31:09.143Z,33.43
2018-04-16T14:33:35.945Z,29.43
2018-04-16T14:36:02.750Z,38.77
2018-04-16T14:38:29.531Z,30.27
2018-04-16T14:40:56.338Z,29.40
2018-04-16T14:43:23.069Z,32.73
2018-04-16T14:45:49.814Z,34.10
2018-04-16T14:48:16.610Z,30.13
2018-04-16T14:50:43.384Z,33.80
2018-04-16T14:53:10.145Z,32.70
2018-04-16T14:55:36.922Z,35.47
2018-04-16T14:58:03.717Z,29.77
2018-04-16T15:00:30.506Z,35.13
2018-04-16T15:02:57.321Z,30.80
2018-04-16T15:05:24.110Z,30.90
2018-04-16T15:07:50.897Z,30.97
2018-04-16T15:10:17.720Z,33.30
2018-04-16T15:12:44.543Z,32.37
2018-04-16T15:15:11.333Z,29.30
2018-04-16T15:17:38.261Z,29.73
2018-04-16T15:20:05.109Z,32.60
2018-04-16T15:22:31.915Z,27.17
2018-04-16T15:24:58.718Z,28.10
2018-04-16T15:27:25.494Z,27.57
2018-04-16T15:29:52.682Z,29.47
2018-04-16T15:32:19.529Z,32.00
2018-04-16T15:34:46.464Z,25.73
2018-04-16T15:37:13.252Z,31.03
2018-04-16T15:39:40.072Z,25.97
2018-04-16T15:42:06.894Z,28.27
2018-04-16T15:44:33.845Z,28.23
2018-04-16T15:47:00.670Z,30.73
2018-04-16T15:49:27.464Z,32.90
2018-04-16T15:51:54.237Z,29.83
2018-04-16T15:54:21.010Z,28.00
2018-04-16T15:56:47.889Z,32.70
2018-04-16T15:59:14.733Z,34.43
2018-04-16T16:01:41.535Z,31.37
2018-04-16T16:04:08.389Z,29.90
2018-04-16T16:06:35.175Z,31.93
2018-04-16T16:09:02.042Z,37.40
2018-04-16T16:11:28.858Z,34.63
2018-04-16T16:13:55.757Z,35.90
2018-04-16T16:16:22.540Z,37.00
2018-04-16T16:18:49.286Z,37.00
2018-04-16T16:21:16.084Z,44.53
2018-04-16T16:23:42.857Z,39.30
2018-04-16T16:26:09.680Z,36.20
2018-04-16T16:28:36.513Z,33.57
2018-04-16T16:31:03.289Z,34.80
2018-04-16T16:33:30.097Z,36.57
2018-04-16T16:35:56.888Z,34.00
2018-04-16T16:38:23.643Z,36.07
2018-04-16T16:40:50.474Z,36.90
2018-04-16T16:43:17.188Z,42.57
2018-04-16T16:45:43.961Z,41.10
2018-04-16T16:48:10.741Z,30.60
2018-04-16T16:50:37.548Z,33.33
2018-04-16T16:53:04.334Z,38.63
2018-04-16T16:55:31.084Z,38.43
2018-04-16T16:57:57.872Z,36.30
2018-04-16T17:00:24.631Z,35.93
2018-04-16T17:02:51.394Z,30.53
2018-04-16T17:05:18.327Z,36.73
2018-04-16T17:07:45.099Z,39.43
2018-04-16T17:10:11.969Z,39.73
2018-04-16T17:12:38.789Z,42.23
2018-04-16T17:15:05.551Z,50.07
2018-04-16T17:17:32.326Z,44.30
2018-04-16T17:19:59.120Z,45.60
2018-04-16T17:22:25.895Z,44.33
2018-04-16T17:24:52.796Z,37.27
2018-04-16T17:27:19.567Z,36.47
2018-04-16T17:29:46.361Z,30.77
2018-04-16T17:32:13.112Z,30.87
2018-04-16T17:34:39.888Z,24.97
2018-04-16T17:37:06.633Z,26.93
2018-04-16T17:39:33.388Z,29.70
2018-04-16T17:42:00.226Z,24.03
2018-04-16T17:44:29.473Z,20.53
2018-04-16T17:46:56.608Z,24.77
2018-04-16T17:49:23.387Z,24.40
2018-04-16T17:51:50.162Z,22.20
2018-04-16T17:54:16.953Z,19.83
2018-04-16T17:56:43.736Z,15.30
2018-04-16T17:59:10.569Z,16.13
2018-04-16T18:01:37.471Z,16.60
2018-04-16T18:04:04.241Z,18.47
2018-04-16T18:06:31.113Z,19.27
2018-04-16T18:08:57.957Z,18.67
2018-04-16T18:11:24.777Z,20.67
2018-04-16T18:13:51.524Z,19.77
2018-04-16T18:16:18.323Z,22.13
2018-04-16T18:18:45.167Z,25.00
2018-04-16T18:21:11.945Z,20.97
2018-04-16T18:23:38.757Z,16.23
2018-04-16T18:26:05.535Z,13.60
2018-04-16T18:28:32.331Z,12.27
2018-04-16T18:30:59.135Z,14.20
2018-04-16T18:33:25.988Z,10.67
2018-04-16T18:35:52.828Z,13.50
2018-04-16T18:38:19.649Z,8.83
2018-04-16T18:40:46.421Z,11.07
2018-04-16T18:43:13.240Z,11.17
2018-04-16T18:45:40.206Z,10.33
2018-04-16T18:48:07.187Z,9.17
2018-04-16T18:50:33.959Z,11.90
2018-04-16T18:53:00.793Z,10.00
2018-04-16T18:55:27.553Z,11.07
2018-04-16T18:57:54.367Z,11.43
2018-04-16T19:00:21.141Z,12.10
2018-04-16T19:02:47.898Z,13.57
2018-04-16T19:05:14.685Z,12.07
2018-04-16T19:07:41.535Z,12.47
2018-04-16T19:10:08.349Z,12.27
2018-04-16T19:12:35.192Z,11.20
2018-04-16T19:15:02.175Z,13.00
2018-04-16T19:17:28.997Z,12.57
2018-04-16T19:19:55.771Z,12.93
2018-04-16T19:22:22.587Z,11.57
2018-04-16T19:24:49.407Z,12.37
2018-04-16T19:27:21.870Z,12.30
2018-04-16T19:29:48.734Z,12.23
2018-04-16T19:32:15.506Z,13.33
2018-04-16T19:34:47.960Z,14.57
2018-04-16T19:37:14.765Z,13.67
2018-04-16T19:39:41.568Z,12.23
2018-04-16T19:42:14.052Z,15.63
2018-04-16T19:44:41.266Z,13.77
2018-04-16T19:47:08.163Z,13.80
2018-04-16T19:49:40.641Z,16.03
2018-04-16T19:52:07.425Z,16.10
2018-04-16T19:54:34.279Z,15.97
2018-04-16T19:57:06.881Z,15.93
2018-04-16T19:59:33.690Z,15.70
2018-04-16T20:02:06.354Z,15.33
2018-04-16T20:04:33.255Z,16.73
2018-04-16T20:07:00.052Z,16.87
2018-04-16T20:09:26.880Z,15.23
2018-04-16T20:11:53.845Z,15.57
2018-04-16T20:14:20.731Z,15.67
2018-04-16T20:16:47.577Z,16.73
2018-04-16T20:19:14.344Z,16.63
2018-04-16T20:21:41.142Z,20.33
2018-04-16T20:24:07.988Z,18.67
2018-04-16T20:26:34.806Z,19.83
2018-04-16T20:29:01.603Z,19.60
2018-04-16T20:31:28.504Z,24.60
2018-04-16T20:33:55.449Z,27.33
2018-04-16T20:36:22.280Z,22.53
2018-04-16T20:38:49.118Z,27.20
2018-04-16T20:41:15.929Z,36.63
2018-04-16T20:43:42.897Z,33.53
2018-04-16T20:46:10.158Z,32.07
2018-04-16T20:48:37.045Z,32.33
2018-04-16T20:51:03.838Z,35.70
2018-04-16T20:53:30.610Z,30.30
2018-04-16T20:55:57.457Z,33.17
2018-04-16T20:58:24.303Z,34.43
2018-04-16T21:00:51.112Z,32.23
2018-04-16T21:03:17.909Z,33.90
2018-04-16T21:08:41.876Z,36.10
2018-04-16T21:11:08.718Z,31.27
2018-04-16T21:13:44.793Z,34.00
2018-04-16T21:16:11.556Z,29.50
2018-04-16T21:18:38.397Z,28.40
2018-04-16T21:21:05.191Z,34.00
2018-04-16T21:23:32.083Z,28.23
2018-04-16T21:25:59.000Z,33.90
2018-04-16T21:28:25.920Z,26.80
2018-04-16T21:30:52.683Z,30.77
2018-04-16T21:33:19.494Z,33.17
2018-04-16T21:35:46.888Z,29.33
2018-04-16T21:38:13.716Z,33.33
2018-04-16T21:40:40.543Z,28.20
2018-04-16T21:43:07.576Z,27.27
2018-04-16T21:45:35.800Z,31.47
2018-04-16T21:48:02.644Z,30.97
2018-04-16T21:50:29.476Z,33.30
2018-04-16T21:52:56.845Z,32.53
2018-04-16T21:55:24.298Z,30.43
2018-04-16T21:57:51.117Z,33.63
2018-04-16T22:00:18.013Z,30.50
2018-04-16T22:02:44.932Z,33.70
2018-04-16T22:05:11.757Z,33.63
2018-04-16T22:07:39.459Z,33.90
2018-04-16T22:10:08.538Z,28.33
2018-04-16T22:12:35.304Z,40.30
2018-04-16T22:15:02.120Z,35.70
2018-04-16T22:17:28.869Z,33.00
2018-04-16T22:19:55.642Z,29.57
2018-04-16T22:22:22.445Z,29.13
2018-04-16T22:24:49.219Z,28.43
2018-04-16T22:27:16.020Z,30.57
2018-04-16T22:29:42.849Z,32.87
2018-04-16T22:32:09.728Z,33.03
2018-04-16T22:34:36.529Z,33.20
2018-04-16T22:37:03.343Z,34.43
2018-04-16T22:39:30.097Z,38.40
2018-04-16T22:41:56.944Z,36.00
2018-04-16T22:44:23.766Z,38.43
2018-04-16T22:46:50.585Z,32.93
2018-04-16T22:49:17.362Z,33.97
2018-04-16T22:51:44.153Z,39.47
2018-04-16T22:54:10.932Z,36.77
2018-04-16T22:56:37.716Z,25.40
2018-04-16T22:59:04.499Z,39.80
2018-04-16T23:01:31.312Z,33.83
2018-04-16T23:03:58.100Z,33.40
2018-04-16T23:06:24.860Z,33.90
2018-04-16T23:08:51.659Z,33.33
2018-04-16T23:11:18.454Z,28.77
2018-04-16T23:13:45.272Z,41.75
2018-04-16T23:16:12.101Z,37.20
2018-04-16T23:18:38.917Z,39.88
2018-04-16T23:21:05.741Z,40.95
2018-04-16T23:23:32.531Z,34.53
2018-04-16T23:25:59.305Z,44.53
2018-04-16T23:28:26.104Z,35.17
2018-04-16T23:30:52.990Z,39.43
2018-04-16T23:33:19.851Z,35.90
2018-04-16T23:35:46.631Z,46.13
2018-04-16T23:38:13.376Z,33.20
2018-04-16T23:40:40.127Z,46.13
2018-04-16T23:43:06.922Z,39.63
2018-04-16T23:45:34.074Z,33.97
2018-04-16T23:48:01.010Z,53.35
2018-04-16T23:50:27.845Z,45.40
2018-04-16T23:52:54.656Z,51.00
2018-04-16T23:55:21.405Z,52.75
2018-04-16T23:57:48.207Z,48.40
